sensor_id;sensor_type;location;lat;lon;timestamp;temperature;humidity
4677;DHT22;2352;48.180;11.478;2023-07-29T00:01:44;20.70;99.90
4677;DHT22;2352;48.180;11.478;2023-07-29T00:04:47;20.70;99.90
4677;DHT22;2352;48.180;11.478;2023-07-29T00:07:50;20.60;99.90
4677;DHT22;2352;48.180;11.478;2023-07-29T00:10:53;20.60;99.90
4677;DHT22;2352;48.180;11.478;2023-07-29T00:13:57;20.60;99.90
4677;DHT22;2352;48.180;11.478;2023-07-29T00:17:00;20.60;99.90
4677;DHT22;2352;48.180;11.478;2023-07-29T00:20:04;20.50;99.90
4677;DHT22;2352;48.180;11.478;2023-07-29T00:23:10;20.50;99.90
4677;DHT22;2352;48.180;11.478;2023-07-29T00:26:13;20.50;99.90
4677;DHT22;2352;48.180;11.478;2023-07-29T00:29:17;20.50;99.90
4677;DHT22;2352;48.180;11.478;2023-07-29T00:32:20;20.50;99.90
4677;DHT22;2352;48.180;11.478;2023-07-29T00:35:23;20.50;99.90
4677;DHT22;2352;48.180;11.478;2023-07-29T00:38:26;20.40;99.90
4677;DHT22;2352;48.180;11.478;2023-07-29T00:41:28;20.40;99.90
4677;DHT22;2352;48.180;11.478;2023-07-29T00:44:33;20.40;99.90
4677;DHT22;2352;48.180;11.478;2023-07-29T00:47:36;20.40;99.90
4677;DHT22;2352;48.180;11.478;2023-07-29T00:50:39;20.40;99.90
4677;DHT22;2352;48.180;11.478;2023-07-29T00:53:42;20.40;99.90
4677;DHT22;2352;48.180;11.478;2023-07-29T00:56:46;20.40;99.90
4677;DHT22;2352;48.180;11.478;2023-07-29T00:59:50;20.40;99.90
4677;DHT22;2352;48.180;11.478;2023-07-29T01:02:54;20.40;99.90
4677;DHT22;2352;48.180;11.478;2023-07-29T01:06:06;20.30;99.90
4677;DHT22;2352;48.180;11.478;2023-07-29T01:09:16;20.40;99.90
4677;DHT22;2352;48.180;11.478;2023-07-29T01:12:27;20.30;99.90
4677;DHT22;2352;48.180;11.478;2023-07-29T01:15:39;20.30;99.90
4677;DHT22;2352;48.180;11.478;2023-07-29T01:18:47;20.30;99.90
4677;DHT22;2352;48.180;11.478;2023-07-29T01:21:51;20.20;99.90
4677;DHT22;2352;48.180;11.478;2023-07-29T01:24:55;20.20;99.90
4677;DHT22;2352;48.180;11.478;2023-07-29T01:27:58;20.20;99.90
4677;DHT22;2352;48.180;11.478;2023-07-29T01:31:06;20.10;99.90
4677;DHT22;2352;48.180;11.478;2023-07-29T01:34:13;20.10;99.90
4677;DHT22;2352;48.180;11.478;2023-07-29T01:37:23;20.10;99.90
4677;DHT22;2352;48.180;11.478;2023-07-29T01:40:29;20.10;99.90
4677;DHT22;2352;48.180;11.478;2023-07-29T01:43:33;20.10;99.90
4677;DHT22;2352;48.180;11.478;2023-07-29T01:46:40;20.10;99.90
4677;DHT22;2352;48.180;11.478;2023-07-29T01:49:43;20.10;99.90
4677;DHT22;2352;48.180;11.478;2023-07-29T01:52:46;20.00;99.90
4677;DHT22;2352;48.180;11.478;2023-07-29T01:55:51;20.00;99.90
4677;DHT22;2352;48.180;11.478;2023-07-29T01:58:54;20.00;99.90
4677;DHT22;2352;48.180;11.478;2023-07-29T02:01:57;20.00;99.90
4677;DHT22;2352;48.180;11.478;2023-07-29T02:04:59;20.00;99.90
4677;DHT22;2352;48.180;11.478;2023-07-29T02:08:03;20.00;99.90
4677;DHT22;2352;48.180;11.478;2023-07-29T02:11:07;19.90;99.90
4677;DHT22;2352;48.180;11.478;2023-07-29T02:14:10;19.90;99.90
4677;DHT22;2352;48.180;11.478;2023-07-29T02:17:13;19.90;99.90
4677;DHT22;2352;48.180;11.478;2023-07-29T02:20:16;19.90;99.90
4677;DHT22;2352;48.180;11.478;2023-07-29T02:23:19;19.90;99.90
4677;DHT22;2352;48.180;11.478;2023-07-29T02:26:24;19.90;99.90
4677;DHT22;2352;48.180;11.478;2023-07-29T02:29:27;19.80;99.90
4677;DHT22;2352;48.180;11.478;2023-07-29T02:32:30;19.80;99.90
4677;DHT22;2352;48.180;11.478;2023-07-29T02:35:34;19.70;99.90
4677;DHT22;2352;48.180;11.478;2023-07-29T02:38:36;19.70;99.90
4677;DHT22;2352;48.180;11.478;2023-07-29T02:41:41;19.70;99.90
4677;DHT22;2352;48.180;11.478;2023-07-29T02:44:44;19.70;99.90
4677;DHT22;2352;48.180;11.478;2023-07-29T02:47:46;19.60;99.90
4677;DHT22;2352;48.180;11.478;2023-07-29T02:50:50;19.60;99.90
4677;DHT22;2352;48.180;11.478;2023-07-29T02:53:53;19.60;99.90
4677;DHT22;2352;48.180;11.478;2023-07-29T02:56:57;19.60;99.90
4677;DHT22;2352;48.180;11.478;2023-07-29T03:00:00;19.60;99.90
4677;DHT22;2352;48.180;11.478;2023-07-29T03:03:03;19.60;99.90
4677;DHT22;2352;48.180;11.478;2023-07-29T03:06:08;19.60;99.90
4677;DHT22;2352;48.180;11.478;2023-07-29T03:09:11;19.60;99.90
4677;DHT22;2352;48.180;11.478;2023-07-29T03:12:15;19.50;99.90
4677;DHT22;2352;48.180;11.478;2023-07-29T03:15:18;19.50;99.90
4677;DHT22;2352;48.180;11.478;2023-07-29T03:18:22;19.60;99.90
4677;DHT22;2352;48.180;11.478;2023-07-29T03:21:25;19.50;99.90
4677;DHT22;2352;48.180;11.478;2023-07-29T03:24:28;19.50;99.90
4677;DHT22;2352;48.180;11.478;2023-07-29T03:27:32;19.60;99.90
4677;DHT22;2352;48.180;11.478;2023-07-29T03:30:38;19.60;99.90
4677;DHT22;2352;48.180;11.478;2023-07-29T03:33:41;19.60;99.90
4677;DHT22;2352;48.180;11.478;2023-07-29T03:36:44;19.60;99.90
4677;DHT22;2352;48.180;11.478;2023-07-29T03:39:49;19.60;99.90
4677;DHT22;2352;48.180;11.478;2023-07-29T03:42:55;19.60;99.90
4677;DHT22;2352;48.180;11.478;2023-07-29T03:45:58;19.60;99.90
4677;DHT22;2352;48.180;11.478;2023-07-29T03:49:01;19.60;99.90
4677;DHT22;2352;48.180;11.478;2023-07-29T03:52:05;19.60;99.90
4677;DHT22;2352;48.180;11.478;2023-07-29T03:55:09;19.60;99.90
4677;DHT22;2352;48.180;11.478;2023-07-29T03:58:13;19.60;99.90
4677;DHT22;2352;48.180;11.478;2023-07-29T04:01:16;19.60;99.90
4677;DHT22;2352;48.180;11.478;2023-07-29T04:04:19;19.70;99.90
4677;DHT22;2352;48.180;11.478;2023-07-29T04:07:22;19.70;99.90
4677;DHT22;2352;48.180;11.478;2023-07-29T04:10:25;19.70;99.90
4677;DHT22;2352;48.180;11.478;2023-07-29T04:13:30;19.70;99.90
4677;DHT22;2352;48.180;11.478;2023-07-29T04:16:33;19.80;99.90
4677;DHT22;2352;48.180;11.478;2023-07-29T04:19:36;19.80;99.90
4677;DHT22;2352;48.180;11.478;2023-07-29T04:22:39;19.80;99.90
4677;DHT22;2352;48.180;11.478;2023-07-29T04:25:42;19.80;99.90
4677;DHT22;2352;48.180;11.478;2023-07-29T04:28:46;19.70;99.90
4677;DHT22;2352;48.180;11.478;2023-07-29T04:31:49;19.80;99.90
4677;DHT22;2352;48.180;11.478;2023-07-29T04:34:52;19.70;99.90
4677;DHT22;2352;48.180;11.478;2023-07-29T04:37:55;19.70;99.90
4677;DHT22;2352;48.180;11.478;2023-07-29T04:40:58;19.70;99.90
4677;DHT22;2352;48.180;11.478;2023-07-29T04:44:04;19.80;99.90
4677;DHT22;2352;48.180;11.478;2023-07-29T04:47:07;19.80;99.90
4677;DHT22;2352;48.180;11.478;2023-07-29T04:50:10;19.80;99.90
4677;DHT22;2352;48.180;11.478;2023-07-29T04:53:13;19.80;99.90
4677;DHT22;2352;48.180;11.478;2023-07-29T04:56:16;19.80;99.90
4677;DHT22;2352;48.180;11.478;2023-07-29T04:59:21;19.80;99.90
4677;DHT22;2352;48.180;11.478;2023-07-29T05:02:23;19.80;99.90
4677;DHT22;2352;48.180;11.478;2023-07-29T05:05:26;19.90;99.90
4677;DHT22;2352;48.180;11.478;2023-07-29T05:08:29;19.90;99.90
4677;DHT22;2352;48.180;11.478;2023-07-29T05:11:32;20.00;99.90
4677;DHT22;2352;48.180;11.478;2023-07-29T05:14:37;20.00;99.90
4677;DHT22;2352;48.180;11.478;2023-07-29T05:17:40;20.10;99.90
4677;DHT22;2352;48.180;11.478;2023-07-29T05:20:43;20.10;99.90
4677;DHT22;2352;48.180;11.478;2023-07-29T05:23:46;20.10;99.90
4677;DHT22;2352;48.180;11.478;2023-07-29T05:26:49;20.20;99.90
4677;DHT22;2352;48.180;11.478;2023-07-29T05:29:53;20.20;99.90
4677;DHT22;2352;48.180;11.478;2023-07-29T05:32:56;20.20;99.90
4677;DHT22;2352;48.180;11.478;2023-07-29T05:35:59;20.30;99.90
4677;DHT22;2352;48.180;11.478;2023-07-29T05:39:02;20.30;99.90
4677;DHT22;2352;48.180;11.478;2023-07-29T05:42:06;20.30;99.90
4677;DHT22;2352;48.180;11.478;2023-07-29T05:45:11;20.40;99.90
4677;DHT22;2352;48.180;11.478;2023-07-29T05:48:14;20.40;99.90
4677;DHT22;2352;48.180;11.478;2023-07-29T05:51:17;20.40;99.90
4677;DHT22;2352;48.180;11.478;2023-07-29T05:54:20;20.40;99.90
4677;DHT22;2352;48.180;11.478;2023-07-29T05:57:23;20.40;99.90
4677;DHT22;2352;48.180;11.478;2023-07-29T06:00:27;20.40;99.90
4677;DHT22;2352;48.180;11.478;2023-07-29T06:03:30;20.40;99.90
4677;DHT22;2352;48.180;11.478;2023-07-29T06:06:33;20.40;99.90
4677;DHT22;2352;48.180;11.478;2023-07-29T06:09:37;20.40;99.90
4677;DHT22;2352;48.180;11.478;2023-07-29T06:12:40;20.40;99.90
4677;DHT22;2352;48.180;11.478;2023-07-29T06:15:44;20.50;99.90
4677;DHT22;2352;48.180;11.478;2023-07-29T06:18:47;20.50;99.90
4677;DHT22;2352;48.180;11.478;2023-07-29T06:21:50;20.50;99.90
4677;DHT22;2352;48.180;11.478;2023-07-29T06:24:53;20.50;99.90
4677;DHT22;2352;48.180;11.478;2023-07-29T06:27:56;20.50;99.90
4677;DHT22;2352;48.180;11.478;2023-07-29T06:31:01;20.60;99.90
4677;DHT22;2352;48.180;11.478;2023-07-29T06:34:04;20.50;99.90
4677;DHT22;2352;48.180;11.478;2023-07-29T06:37:07;20.50;99.90
4677;DHT22;2352;48.180;11.478;2023-07-29T06:40:11;20.60;99.90
4677;DHT22;2352;48.180;11.478;2023-07-29T06:43:13;20.60;99.90
4677;DHT22;2352;48.180;11.478;2023-07-29T06:46:18;20.60;99.90
4677;DHT22;2352;48.180;11.478;2023-07-29T06:49:21;20.50;99.90
4677;DHT22;2352;48.180;11.478;2023-07-29T06:52:25;20.40;99.90
4677;DHT22;2352;48.180;11.478;2023-07-29T06:55:28;20.40;99.90
4677;DHT22;2352;48.180;11.478;2023-07-29T06:58:31;20.40;99.90
4677;DHT22;2352;48.180;11.478;2023-07-29T07:01:35;20.40;99.90
4677;DHT22;2352;48.180;11.478;2023-07-29T07:04:38;20.50;99.90
4677;DHT22;2352;48.180;11.478;2023-07-29T07:07:41;20.50;99.90
4677;DHT22;2352;48.180;11.478;2023-07-29T07:10:44;20.50;99.90
4677;DHT22;2352;48.180;11.478;2023-07-29T07:13:46;20.60;99.90
4677;DHT22;2352;48.180;11.478;2023-07-29T07:16:51;20.50;99.90
4677;DHT22;2352;48.180;11.478;2023-07-29T07:19:54;20.60;99.90
4677;DHT22;2352;48.180;11.478;2023-07-29T07:22:57;20.50;99.90
4677;DHT22;2352;48.180;11.478;2023-07-29T07:26:00;20.50;99.90
4677;DHT22;2352;48.180;11.478;2023-07-29T07:29:03;20.50;99.90
4677;DHT22;2352;48.180;11.478;2023-07-29T07:32:08;20.60;99.90
4677;DHT22;2352;48.180;11.478;2023-07-29T07:35:11;20.60;99.90
4677;DHT22;2352;48.180;11.478;2023-07-29T07:38:14;20.60;99.90
4677;DHT22;2352;48.180;11.478;2023-07-29T07:41:16;20.60;99.90
4677;DHT22;2352;48.180;11.478;2023-07-29T07:44:20;20.70;99.90
4677;DHT22;2352;48.180;11.478;2023-07-29T07:47:24;20.80;99.90
4677;DHT22;2352;48.180;11.478;2023-07-29T07:50:30;20.80;99.90
4677;DHT22;2352;48.180;11.478;2023-07-29T07:53:33;20.80;99.90
4677;DHT22;2352;48.180;11.478;2023-07-29T07:56:36;20.80;99.90
4677;DHT22;2352;48.180;11.478;2023-07-29T07:59:39;20.90;99.90
4677;DHT22;2352;48.180;11.478;2023-07-29T08:02:44;20.90;99.90
4677;DHT22;2352;48.180;11.478;2023-07-29T08:05:47;21.00;99.90
4677;DHT22;2352;48.180;11.478;2023-07-29T08:08:51;21.00;99.90
4677;DHT22;2352;48.180;11.478;2023-07-29T08:11:54;21.10;99.90
4677;DHT22;2352;48.180;11.478;2023-07-29T08:14:57;21.10;99.90
4677;DHT22;2352;48.180;11.478;2023-07-29T08:18:02;21.10;99.90
4677;DHT22;2352;48.180;11.478;2023-07-29T08:21:05;21.10;99.90
4677;DHT22;2352;48.180;11.478;2023-07-29T08:24:08;21.20;99.90
4677;DHT22;2352;48.180;11.478;2023-07-29T08:27:11;21.20;99.90
4677;DHT22;2352;48.180;11.478;2023-07-29T08:30:14;21.30;99.90
4677;DHT22;2352;48.180;11.478;2023-07-29T08:33:19;21.40;99.90
4677;DHT22;2352;48.180;11.478;2023-07-29T08:36:22;21.40;99.90
4677;DHT22;2352;48.180;11.478;2023-07-29T08:39:24;21.50;99.90
4677;DHT22;2352;48.180;11.478;2023-07-29T08:42:31;21.50;99.90
4677;DHT22;2352;48.180;11.478;2023-07-29T08:45:35;21.50;99.90
4677;DHT22;2352;48.180;11.478;2023-07-29T08:48:42;21.50;99.90
4677;DHT22;2352;48.180;11.478;2023-07-29T08:51:46;21.60;99.90
4677;DHT22;2352;48.180;11.478;2023-07-29T08:54:50;21.70;99.90
4677;DHT22;2352;48.180;11.478;2023-07-29T08:57:54;21.70;99.90
4677;DHT22;2352;48.180;11.478;2023-07-29T09:00:57;21.80;99.90
4677;DHT22;2352;48.180;11.478;2023-07-29T09:04:02;21.80;99.90
4677;DHT22;2352;48.180;11.478;2023-07-29T09:07:06;21.80;99.90
4677;DHT22;2352;48.180;11.478;2023-07-29T09:10:10;21.90;99.90
4677;DHT22;2352;48.180;11.478;2023-07-29T09:13:13;22.00;99.90
4677;DHT22;2352;48.180;11.478;2023-07-29T09:16:16;22.00;99.90
4677;DHT22;2352;48.180;11.478;2023-07-29T09:19:20;22.10;99.90
4677;DHT22;2352;48.180;11.478;2023-07-29T09:22:24;22.20;99.90
4677;DHT22;2352;48.180;11.478;2023-07-29T09:25:28;22.30;99.90
4677;DHT22;2352;48.180;11.478;2023-07-29T09:28:33;22.40;99.90
4677;DHT22;2352;48.180;11.478;2023-07-29T09:31:36;22.60;99.90
4677;DHT22;2352;48.180;11.478;2023-07-29T09:34:42;22.70;99.90
4677;DHT22;2352;48.180;11.478;2023-07-29T09:37:45;22.70;99.90
4677;DHT22;2352;48.180;11.478;2023-07-29T09:40:49;22.80;99.90
4677;DHT22;2352;48.180;11.478;2023-07-29T09:43:56;22.90;99.90
4677;DHT22;2352;48.180;11.478;2023-07-29T09:47:00;23.00;99.90
4677;DHT22;2352;48.180;11.478;2023-07-29T09:50:05;23.10;99.90
4677;DHT22;2352;48.180;11.478;2023-07-29T09:53:08;23.10;99.90
4677;DHT22;2352;48.180;11.478;2023-07-29T09:56:12;23.20;99.90
4677;DHT22;2352;48.180;11.478;2023-07-29T09:59:18;23.40;99.90
4677;DHT22;2352;48.180;11.478;2023-07-29T10:02:22;23.70;99.90
4677;DHT22;2352;48.180;11.478;2023-07-29T10:05:29;23.80;99.90
4677;DHT22;2352;48.180;11.478;2023-07-29T10:08:32;23.90;99.90
4677;DHT22;2352;48.180;11.478;2023-07-29T10:11:37;24.10;99.90
4677;DHT22;2352;48.180;11.478;2023-07-29T10:14:42;24.20;99.90
4677;DHT22;2352;48.180;11.478;2023-07-29T10:17:46;24.40;99.90
4677;DHT22;2352;48.180;11.478;2023-07-29T10:20:52;24.50;99.90
4677;DHT22;2352;48.180;11.478;2023-07-29T10:23:57;24.70;99.90
4677;DHT22;2352;48.180;11.478;2023-07-29T10:27:06;24.80;99.70
4677;DHT22;2352;48.180;11.478;2023-07-29T10:30:11;24.80;99.10
4677;DHT22;2352;48.180;11.478;2023-07-29T10:33:15;24.90;98.50
4677;DHT22;2352;48.180;11.478;2023-07-29T10:36:19;24.90;98.00
4677;DHT22;2352;48.180;11.478;2023-07-29T10:39:24;24.90;97.60
4677;DHT22;2352;48.180;11.478;2023-07-29T10:42:27;25.10;98.90
4677;DHT22;2352;48.180;11.478;2023-07-29T10:45:37;25.30;98.20
4677;DHT22;2352;48.180;11.478;2023-07-29T10:48:41;25.40;97.40
4677;DHT22;2352;48.180;11.478;2023-07-29T10:51:45;25.40;99.20
4677;DHT22;2352;48.180;11.478;2023-07-29T10:54:53;25.30;97.10
4677;DHT22;2352;48.180;11.478;2023-07-29T10:58:07;25.30;98.10
4677;DHT22;2352;48.180;11.478;2023-07-29T11:01:13;25.20;97.80
4677;DHT22;2352;48.180;11.478;2023-07-29T11:04:23;25.10;98.50
4677;DHT22;2352;48.180;11.478;2023-07-29T11:07:28;25.10;99.20
4677;DHT22;2352;48.180;11.478;2023-07-29T11:10:42;25.20;98.10
4677;DHT22;2352;48.180;11.478;2023-07-29T11:13:46;25.10;94.30
4677;DHT22;2352;48.180;11.478;2023-07-29T11:16:49;24.90;93.50
4677;DHT22;2352;48.180;11.478;2023-07-29T11:19:54;24.70;93.40
4677;DHT22;2352;48.180;11.478;2023-07-29T11:23:01;24.40;93.60
4677;DHT22;2352;48.180;11.478;2023-07-29T11:26:05;24.30;93.90
4677;DHT22;2352;48.180;11.478;2023-07-29T11:29:09;24.30;94.20
4677;DHT22;2352;48.180;11.478;2023-07-29T11:32:13;24.30;94.40
4677;DHT22;2352;48.180;11.478;2023-07-29T11:35:17;24.40;95.10
4677;DHT22;2352;48.180;11.478;2023-07-29T11:38:22;24.60;95.30
4677;DHT22;2352;48.180;11.478;2023-07-29T11:41:25;24.90;94.70
4677;DHT22;2352;48.180;11.478;2023-07-29T11:44:28;25.20;95.30
4677;DHT22;2352;48.180;11.478;2023-07-29T11:47:31;25.40;94.30
4677;DHT22;2352;48.180;11.478;2023-07-29T11:50:37;25.50;93.70
4677;DHT22;2352;48.180;11.478;2023-07-29T11:53:42;25.70;93.90
4677;DHT22;2352;48.180;11.478;2023-07-29T11:56:45;25.80;94.30
4677;DHT22;2352;48.180;11.478;2023-07-29T11:59:49;25.90;94.40
4677;DHT22;2352;48.180;11.478;2023-07-29T12:02:52;25.90;92.60
4677;DHT22;2352;48.180;11.478;2023-07-29T12:05:55;26.10;94.00
4677;DHT22;2352;48.180;11.478;2023-07-29T12:09:00;26.30;93.10
4677;DHT22;2352;48.180;11.478;2023-07-29T12:12:04;26.50;92.50
4677;DHT22;2352;48.180;11.478;2023-07-29T12:15:08;26.70;92.70
4677;DHT22;2352;48.180;11.478;2023-07-29T12:18:12;26.90;92.30
4677;DHT22;2352;48.180;11.478;2023-07-29T12:21:15;27.00;92.60
4677;DHT22;2352;48.180;11.478;2023-07-29T12:24:22;27.10;91.60
4677;DHT22;2352;48.180;11.478;2023-07-29T12:27:25;27.00;91.50
4677;DHT22;2352;48.180;11.478;2023-07-29T12:30:28;26.90;91.80
4677;DHT22;2352;48.180;11.478;2023-07-29T12:33:32;26.80;92.70
4677;DHT22;2352;48.180;11.478;2023-07-29T12:36:43;26.60;92.70
4677;DHT22;2352;48.180;11.478;2023-07-29T12:39:50;26.50;94.20
4677;DHT22;2352;48.180;11.478;2023-07-29T12:42:53;26.30;94.90
4677;DHT22;2352;48.180;11.478;2023-07-29T12:45:57;26.20;96.70
4677;DHT22;2352;48.180;11.478;2023-07-29T12:49:00;26.00;98.90
4677;DHT22;2352;48.180;11.478;2023-07-29T12:52:03;25.40;97.10
4677;DHT22;2352;48.180;11.478;2023-07-29T12:55:08;24.90;98.20
4677;DHT22;2352;48.180;11.478;2023-07-29T12:58:15;24.60;99.80
4677;DHT22;2352;48.180;11.478;2023-07-29T13:01:18;24.40;99.90
4677;DHT22;2352;48.180;11.478;2023-07-29T13:04:21;24.30;99.90
4677;DHT22;2352;48.180;11.478;2023-07-29T13:07:24;24.20;99.90
4677;DHT22;2352;48.180;11.478;2023-07-29T13:10:28;24.00;99.90
4677;DHT22;2352;48.180;11.478;2023-07-29T13:13:32;24.00;99.90
4677;DHT22;2352;48.180;11.478;2023-07-29T13:16:35;24.10;99.90
4677;DHT22;2352;48.180;11.478;2023-07-29T13:19:39;24.10;99.90
4677;DHT22;2352;48.180;11.478;2023-07-29T13:22:41;24.00;99.90
4677;DHT22;2352;48.180;11.478;2023-07-29T13:25:46;24.00;99.90
4677;DHT22;2352;48.180;11.478;2023-07-29T13:28:49;24.00;99.90
4677;DHT22;2352;48.180;11.478;2023-07-29T13:31:52;24.10;99.90
4677;DHT22;2352;48.180;11.478;2023-07-29T13:34:55;24.10;99.90
4677;DHT22;2352;48.180;11.478;2023-07-29T13:37:58;24.00;99.90
4677;DHT22;2352;48.180;11.478;2023-07-29T13:41:03;24.00;99.90
4677;DHT22;2352;48.180;11.478;2023-07-29T13:44:06;24.00;99.90
4677;DHT22;2352;48.180;11.478;2023-07-29T13:47:09;23.90;99.90
4677;DHT22;2352;48.180;11.478;2023-07-29T13:50:12;23.90;99.90
4677;DHT22;2352;48.180;11.478;2023-07-29T13:53:15;23.90;99.90
4677;DHT22;2352;48.180;11.478;2023-07-29T13:56:19;24.50;99.90
4677;DHT22;2352;48.180;11.478;2023-07-29T13:59:23;23.80;99.90
4677;DHT22;2352;48.180;11.478;2023-07-29T14:02:26;23.80;99.90
4677;DHT22;2352;48.180;11.478;2023-07-29T14:05:29;23.80;99.90
4677;DHT22;2352;48.180;11.478;2023-07-29T14:08:32;23.70;99.90
4677;DHT22;2352;48.180;11.478;2023-07-29T14:11:38;23.70;99.90
4677;DHT22;2352;48.180;11.478;2023-07-29T14:14:41;23.70;99.90
4677;DHT22;2352;48.180;11.478;2023-07-29T14:17:45;23.60;99.90
4677;DHT22;2352;48.180;11.478;2023-07-29T14:20:48;23.60;99.90
4677;DHT22;2352;48.180;11.478;2023-07-29T14:23:53;23.60;99.90
4677;DHT22;2352;48.180;11.478;2023-07-29T14:26:59;23.70;99.90
4677;DHT22;2352;48.180;11.478;2023-07-29T14:30:03;23.60;99.90
4677;DHT22;2352;48.180;11.478;2023-07-29T14:33:06;23.60;99.90
4677;DHT22;2352;48.180;11.478;2023-07-29T14:36:09;23.50;99.90
4677;DHT22;2352;48.180;11.478;2023-07-29T14:39:12;23.50;99.90
4677;DHT22;2352;48.180;11.478;2023-07-29T14:42:17;23.30;99.90
4677;DHT22;2352;48.180;11.478;2023-07-29T14:45:20;23.20;99.90
4677;DHT22;2352;48.180;11.478;2023-07-29T14:48:23;23.20;99.90
4677;DHT22;2352;48.180;11.478;2023-07-29T14:51:26;23.10;99.90
4677;DHT22;2352;48.180;11.478;2023-07-29T14:54:30;23.10;99.90
4677;DHT22;2352;48.180;11.478;2023-07-29T14:57:34;23.00;99.90
4677;DHT22;2352;48.180;11.478;2023-07-29T15:00:37;23.00;99.90
4677;DHT22;2352;48.180;11.478;2023-07-29T15:03:40;22.90;99.90
4677;DHT22;2352;48.180;11.478;2023-07-29T15:06:47;22.90;99.90
4677;DHT22;2352;48.180;11.478;2023-07-29T15:09:50;22.90;99.90
4677;DHT22;2352;48.180;11.478;2023-07-29T15:12:55;22.90;99.90
4677;DHT22;2352;48.180;11.478;2023-07-29T15:15:58;22.80;99.90
4677;DHT22;2352;48.180;11.478;2023-07-29T15:19:02;22.80;99.90
4677;DHT22;2352;48.180;11.478;2023-07-29T15:22:06;22.80;99.90
4677;DHT22;2352;48.180;11.478;2023-07-29T15:25:09;22.80;99.90
4677;DHT22;2352;48.180;11.478;2023-07-29T15:28:14;22.70;99.90
4677;DHT22;2352;48.180;11.478;2023-07-29T15:31:18;22.60;99.90
4677;DHT22;2352;48.180;11.478;2023-07-29T15:34:21;22.60;99.90
4677;DHT22;2352;48.180;11.478;2023-07-29T15:37:27;22.50;99.90
4677;DHT22;2352;48.180;11.478;2023-07-29T15:40:30;22.40;99.90
4677;DHT22;2352;48.180;11.478;2023-07-29T15:43:34;22.50;99.90
4677;DHT22;2352;48.180;11.478;2023-07-29T15:46:37;22.50;99.90
4677;DHT22;2352;48.180;11.478;2023-07-29T15:49:41;22.50;99.90
4677;DHT22;2352;48.180;11.478;2023-07-29T15:52:44;22.40;99.90
4677;DHT22;2352;48.180;11.478;2023-07-29T15:55:47;22.40;99.90
4677;DHT22;2352;48.180;11.478;2023-07-29T15:58:51;22.40;99.90
4677;DHT22;2352;48.180;11.478;2023-07-29T16:01:54;22.50;99.90
4677;DHT22;2352;48.180;11.478;2023-07-29T16:04:57;22.50;99.90
4677;DHT22;2352;48.180;11.478;2023-07-29T16:08:00;22.50;99.90
4677;DHT22;2352;48.180;11.478;2023-07-29T16:11:03;22.50;99.90
4677;DHT22;2352;48.180;11.478;2023-07-29T16:14:07;22.50;99.90
4677;DHT22;2352;48.180;11.478;2023-07-29T16:17:10;22.50;99.90
4677;DHT22;2352;48.180;11.478;2023-07-29T16:20:13;22.50;99.90
4677;DHT22;2352;48.180;11.478;2023-07-29T16:23:16;22.50;99.90
4677;DHT22;2352;48.180;11.478;2023-07-29T16:26:19;22.50;99.90
4677;DHT22;2352;48.180;11.478;2023-07-29T16:29:24;22.50;99.90
4677;DHT22;2352;48.180;11.478;2023-07-29T16:32:27;22.50;99.90
4677;DHT22;2352;48.180;11.478;2023-07-29T16:35:30;22.50;99.90
4677;DHT22;2352;48.180;11.478;2023-07-29T16:38:33;22.50;99.90
4677;DHT22;2352;48.180;11.478;2023-07-29T16:41:36;22.50;99.90
4677;DHT22;2352;48.180;11.478;2023-07-29T16:44:43;22.50;99.90
4677;DHT22;2352;48.180;11.478;2023-07-29T16:47:46;22.40;99.90
4677;DHT22;2352;48.180;11.478;2023-07-29T16:50:49;22.50;99.90
4677;DHT22;2352;48.180;11.478;2023-07-29T16:53:52;22.50;99.90
4677;DHT22;2352;48.180;11.478;2023-07-29T16:56:55;22.50;99.90
4677;DHT22;2352;48.180;11.478;2023-07-29T16:59:59;22.60;99.90
4677;DHT22;2352;48.180;11.478;2023-07-29T17:03:02;22.50;99.90
4677;DHT22;2352;48.180;11.478;2023-07-29T17:06:05;22.50;99.90
4677;DHT22;2352;48.180;11.478;2023-07-29T17:09:08;22.50;99.90
4677;DHT22;2352;48.180;11.478;2023-07-29T17:12:11;22.50;99.90
4677;DHT22;2352;48.180;11.478;2023-07-29T17:15:16;22.50;99.90
4677;DHT22;2352;48.180;11.478;2023-07-29T17:18:19;22.50;99.90
4677;DHT22;2352;48.180;11.478;2023-07-29T17:21:22;22.40;99.90
4677;DHT22;2352;48.180;11.478;2023-07-29T17:24:25;22.40;99.90
4677;DHT22;2352;48.180;11.478;2023-07-29T17:27:29;22.40;99.90
4677;DHT22;2352;48.180;11.478;2023-07-29T17:30:33;22.40;99.90
4677;DHT22;2352;48.180;11.478;2023-07-29T17:33:37;22.40;99.90
4677;DHT22;2352;48.180;11.478;2023-07-29T17:36:40;22.40;99.90
4677;DHT22;2352;48.180;11.478;2023-07-29T17:39:43;22.30;99.90
4677;DHT22;2352;48.180;11.478;2023-07-29T17:42:46;22.30;99.90
4677;DHT22;2352;48.180;11.478;2023-07-29T17:45:50;22.20;99.90
4677;DHT22;2352;48.180;11.478;2023-07-29T17:48:53;22.20;99.90
4677;DHT22;2352;48.180;11.478;2023-07-29T17:51:56;22.20;99.90
4677;DHT22;2352;48.180;11.478;2023-07-29T17:54:59;22.20;99.90
4677;DHT22;2352;48.180;11.478;2023-07-29T17:58:02;22.20;99.90
4677;DHT22;2352;48.180;11.478;2023-07-29T18:01:07;22.20;99.90
4677;DHT22;2352;48.180;11.478;2023-07-29T18:04:10;22.30;99.90
4677;DHT22;2352;48.180;11.478;2023-07-29T18:07:13;22.30;99.90
4677;DHT22;2352;48.180;11.478;2023-07-29T18:10:16;22.30;99.90
4677;DHT22;2352;48.180;11.478;2023-07-29T18:13:19;22.30;99.90
4677;DHT22;2352;48.180;11.478;2023-07-29T18:16:24;22.20;99.90
4677;DHT22;2352;48.180;11.478;2023-07-29T18:19:27;22.20;99.90
4677;DHT22;2352;48.180;11.478;2023-07-29T18:22:33;22.20;99.90
4677;DHT22;2352;48.180;11.478;2023-07-29T18:25:36;22.20;99.90
4677;DHT22;2352;48.180;11.478;2023-07-29T18:28:39;22.20;99.90
4677;DHT22;2352;48.180;11.478;2023-07-29T18:31:44;22.20;99.90
4677;DHT22;2352;48.180;11.478;2023-07-29T18:34:47;22.20;99.90
4677;DHT22;2352;48.180;11.478;2023-07-29T18:37:50;22.20;99.90
4677;DHT22;2352;48.180;11.478;2023-07-29T18:40:59;22.20;99.90
4677;DHT22;2352;48.180;11.478;2023-07-29T18:44:02;22.20;99.90
4677;DHT22;2352;48.180;11.478;2023-07-29T18:47:06;22.20;99.90
4677;DHT22;2352;48.180;11.478;2023-07-29T18:50:10;22.20;99.90
4677;DHT22;2352;48.180;11.478;2023-07-29T18:53:12;22.20;99.90
4677;DHT22;2352;48.180;11.478;2023-07-29T18:56:15;22.10;99.90
4677;DHT22;2352;48.180;11.478;2023-07-29T18:59:18;22.10;99.90
4677;DHT22;2352;48.180;11.478;2023-07-29T19:02:25;22.10;99.90
4677;DHT22;2352;48.180;11.478;2023-07-29T19:05:28;22.10;99.90
4677;DHT22;2352;48.180;11.478;2023-07-29T19:08:31;22.00;99.90
4677;DHT22;2352;48.180;11.478;2023-07-29T19:11:34;22.00;99.90
4677;DHT22;2352;48.180;11.478;2023-07-29T19:14:37;22.10;99.90
4677;DHT22;2352;48.180;11.478;2023-07-29T19:17:41;22.00;99.90
4677;DHT22;2352;48.180;11.478;2023-07-29T19:20:48;21.90;99.90
4677;DHT22;2352;48.180;11.478;2023-07-29T19:23:51;21.90;99.90
4677;DHT22;2352;48.180;11.478;2023-07-29T19:26:54;21.90;99.90
4677;DHT22;2352;48.180;11.478;2023-07-29T19:29:58;21.90;99.90
4677;DHT22;2352;48.180;11.478;2023-07-29T19:33:03;21.90;99.90
4677;DHT22;2352;48.180;11.478;2023-07-29T19:36:06;21.90;99.90
4677;DHT22;2352;48.180;11.478;2023-07-29T19:39:09;21.80;99.90